sensor_id;sensor_type;location;lat;lon;timestamp;pressure;altitude;pressure_sealevel;temperature;humidity
81033;BME280;70514;52.478;6.102;2023-12-20T00:01:18;101535.97;;;8.38;100.00
81033;BME280;70514;52.478;6.102;2023-12-20T00:03:46;101537.28;;;8.53;100.00
81033;BME280;70514;52.478;6.102;2023-12-20T00:06:14;101552.00;;;8.31;100.00
81033;BME280;70514;52.478;6.102;2023-12-20T00:08:42;101533.53;;;8.42;100.00
81033;BME280;70514;52.478;6.102;2023-12-20T00:11:11;101536.47;;;8.26;100.00
81033;BME280;70514;52.478;6.102;2023-12-20T00:13:39;101522.47;;;8.76;100.00
81033;BME280;70514;52.478;6.102;2023-12-20T00:16:07;101510.75;;;9.19;99.81
81033;BME280;70514;52.478;6.102;2023-12-20T00:18:35;101505.34;;;9.08;98.80
81033;BME280;70514;52.478;6.102;2023-12-20T00:21:03;101530.06;;;8.72;100.00
81033;BME280;70514;52.478;6.102;2023-12-20T00:23:31;101522.03;;;8.91;100.00
81033;BME280;70514;52.478;6.102;2023-12-20T00:26:00;101520.09;;;8.82;100.00
81033;BME280;70514;52.478;6.102;2023-12-20T00:28:28;101532.88;;;7.91;98.13
81033;BME280;70514;52.478;6.102;2023-12-20T00:30:56;101505.63;;;7.66;100.00
81033;BME280;70514;52.478;6.102;2023-12-20T00:33:24;101498.97;;;7.73;100.00
81033;BME280;70514;52.478;6.102;2023-12-20T00:35:52;101518.66;;;8.31;100.00
81033;BME280;70514;52.478;6.102;2023-12-20T00:38:20;101498.44;;;8.41;100.00
81033;BME280;70514;52.478;6.102;2023-12-20T00:40:48;101504.38;;;8.39;100.00
81033;BME280;70514;52.478;6.102;2023-12-20T00:43:17;101518.03;;;8.69;100.00
81033;BME280;70514;52.478;6.102;2023-12-20T00:45:45;101523.78;;;8.31;100.00
81033;BME280;70514;52.478;6.102;2023-12-20T00:48:13;101493.94;;;8.33;100.00
81033;BME280;70514;52.478;6.102;2023-12-20T00:50:42;101494.41;;;8.51;100.00
81033;BME280;70514;52.478;6.102;2023-12-20T00:53:10;101518.22;;;8.45;100.00
81033;BME280;70514;52.478;6.102;2023-12-20T00:55:38;101508.25;;;8.56;100.00
81033;BME280;70514;52.478;6.102;2023-12-20T00:58:06;101515.81;;;7.93;97.23
81033;BME280;70514;52.478;6.102;2023-12-20T01:00:34;101517.84;;;7.75;100.00
81033;BME280;70514;52.478;6.102;2023-12-20T01:03:02;101514.69;;;7.57;100.00
81033;BME280;70514;52.478;6.102;2023-12-20T01:05:30;101518.34;;;7.92;100.00
81033;BME280;70514;52.478;6.102;2023-12-20T01:07:58;101509.09;;;7.97;100.00
81033;BME280;70514;52.478;6.102;2023-12-20T01:10:26;101517.69;;;8.27;100.00
81033;BME280;70514;52.478;6.102;2023-12-20T01:12:56;101508.31;;;7.71;100.00
81033;BME280;70514;52.478;6.102;2023-12-20T01:15:25;101492.88;;;7.16;100.00
81033;BME280;70514;52.478;6.102;2023-12-20T01:17:52;101512.91;;;7.83;100.00
81033;BME280;70514;52.478;6.102;2023-12-20T01:20:20;101479.09;;;7.94;99.64
81033;BME280;70514;52.478;6.102;2023-12-20T01:22:48;101489.28;;;8.51;100.00
81033;BME280;70514;52.478;6.102;2023-12-20T01:25:16;101497.16;;;8.57;100.00
81033;BME280;70514;52.478;6.102;2023-12-20T01:27:44;101497.03;;;7.94;100.00
81033;BME280;70514;52.478;6.102;2023-12-20T01:30:13;101507.53;;;7.47;99.11
81033;BME280;70514;52.478;6.102;2023-12-20T01:32:41;101509.03;;;8.24;100.00
81033;BME280;70514;52.478;6.102;2023-12-20T01:35:09;101499.97;;;7.78;100.00
81033;BME280;70514;52.478;6.102;2023-12-20T01:37:37;101507.69;;;7.24;100.00
81033;BME280;70514;52.478;6.102;2023-12-20T01:40:05;101504.97;;;8.02;100.00
81033;BME280;70514;52.478;6.102;2023-12-20T01:42:33;101483.22;;;8.18;100.00
81033;BME280;70514;52.478;6.102;2023-12-20T01:45:01;101482.53;;;8.25;100.00
81033;BME280;70514;52.478;6.102;2023-12-20T01:47:32;101495.34;;;8.53;100.00
81033;BME280;70514;52.478;6.102;2023-12-20T01:50:00;101485.81;;;8.82;100.00
81033;BME280;70514;52.478;6.102;2023-12-20T01:52:32;101489.88;;;9.05;99.69
81033;BME280;70514;52.478;6.102;2023-12-20T01:55:01;101475.34;;;9.07;98.67
81033;BME280;70514;52.478;6.102;2023-12-20T01:57:32;101485.06;;;9.19;98.76
81033;BME280;70514;52.478;6.102;2023-12-20T02:00:00;101490.34;;;9.25;97.99
81033;BME280;70514;52.478;6.102;2023-12-20T02:02:29;101498.47;;;9.43;97.35
81033;BME280;70514;52.478;6.102;2023-12-20T02:04:58;101482.09;;;9.38;96.47
81033;BME280;70514;52.478;6.102;2023-12-20T02:07:27;101472.81;;;9.09;97.90
81033;BME280;70514;52.478;6.102;2023-12-20T02:09:56;101490.28;;;9.23;97.92
81033;BME280;70514;52.478;6.102;2023-12-20T02:12:24;101470.97;;;9.39;97.10
81033;BME280;70514;52.478;6.102;2023-12-20T02:14:52;101477.03;;;9.41;95.99
81033;BME280;70514;52.478;6.102;2023-12-20T02:17:22;101472.75;;;9.42;97.40
81033;BME280;70514;52.478;6.102;2023-12-20T02:19:50;101478.56;;;9.34;96.89
81033;BME280;70514;52.478;6.102;2023-12-20T02:22:18;101483.34;;;9.55;96.73
81033;BME280;70514;52.478;6.102;2023-12-20T02:24:46;101474.47;;;9.41;97.41
81033;BME280;70514;52.478;6.102;2023-12-20T02:27:15;101463.38;;;9.44;96.85
81033;BME280;70514;52.478;6.102;2023-12-20T02:29:47;101462.78;;;9.55;96.11
81033;BME280;70514;52.478;6.102;2023-12-20T02:32:17;101448.47;;;9.29;96.85
81033;BME280;70514;52.478;6.102;2023-12-20T02:34:47;101456.63;;;9.49;96.27
81033;BME280;70514;52.478;6.102;2023-12-20T02:37:15;101469.47;;;9.47;95.83
81033;BME280;70514;52.478;6.102;2023-12-20T02:39:43;101468.22;;;9.67;96.13
81033;BME280;70514;52.478;6.102;2023-12-20T02:42:11;101433.25;;;9.38;95.73
81033;BME280;70514;52.478;6.102;2023-12-20T02:44:39;101449.16;;;9.22;95.23
81033;BME280;70514;52.478;6.102;2023-12-20T02:47:07;101444.44;;;9.04;98.28
81033;BME280;70514;52.478;6.102;2023-12-20T02:49:35;101436.13;;;9.14;96.42
81033;BME280;70514;52.478;6.102;2023-12-20T02:52:03;101455.59;;;9.41;97.31
81033;BME280;70514;52.478;6.102;2023-12-20T02:54:32;101459.09;;;9.43;97.19
81033;BME280;70514;52.478;6.102;2023-12-20T02:57:00;101447.75;;;9.34;96.64
81033;BME280;70514;52.478;6.102;2023-12-20T02:59:28;101451.00;;;9.27;97.00
81033;BME280;70514;52.478;6.102;2023-12-20T03:01:56;101437.97;;;9.20;98.83
81033;BME280;70514;52.478;6.102;2023-12-20T03:04:24;101446.88;;;8.98;96.41
81033;BME280;70514;52.478;6.102;2023-12-20T03:06:53;101428.97;;;9.37;97.89
81033;BME280;70514;52.478;6.102;2023-12-20T03:09:22;101421.06;;;9.67;95.64
81033;BME280;70514;52.478;6.102;2023-12-20T03:11:49;101432.22;;;9.67;95.44
81033;BME280;70514;52.478;6.102;2023-12-20T03:14:17;101430.91;;;9.47;95.64
81033;BME280;70514;52.478;6.102;2023-12-20T03:16:51;101424.66;;;9.36;96.50
81033;BME280;70514;52.478;6.102;2023-12-20T03:19:19;101440.13;;;9.37;95.63
81033;BME280;70514;52.478;6.102;2023-12-20T03:21:47;101423.00;;;9.39;96.41
81033;BME280;70514;52.478;6.102;2023-12-20T03:24:15;101445.59;;;9.53;96.56
81033;BME280;70514;52.478;6.102;2023-12-20T03:26:43;101447.94;;;9.42;97.11
81033;BME280;70514;52.478;6.102;2023-12-20T03:29:11;101412.44;;;9.26;97.09
81033;BME280;70514;52.478;6.102;2023-12-20T03:31:39;101442.00;;;9.46;97.05
81033;BME280;70514;52.478;6.102;2023-12-20T03:34:07;101430.13;;;9.51;96.99
81033;BME280;70514;52.478;6.102;2023-12-20T03:36:35;101428.72;;;9.28;97.40
81033;BME280;70514;52.478;6.102;2023-12-20T03:39:03;101431.59;;;9.04;97.55
81033;BME280;70514;52.478;6.102;2023-12-20T03:41:30;101437.56;;;9.03;96.55
81033;BME280;70514;52.478;6.102;2023-12-20T03:43:58;101435.38;;;8.84;97.41
81033;BME280;70514;52.478;6.102;2023-12-20T03:46:26;101425.34;;;8.59;99.29
81033;BME280;70514;52.478;6.102;2023-12-20T03:48:54;101437.25;;;7.95;98.21
81033;BME280;70514;52.478;6.102;2023-12-20T03:51:22;101404.88;;;7.69;99.06
81033;BME280;70514;52.478;6.102;2023-12-20T03:53:50;101427.53;;;8.15;99.80
81033;BME280;70514;52.478;6.102;2023-12-20T03:56:18;101435.69;;;8.30;99.64
81033;BME280;70514;52.478;6.102;2023-12-20T03:58:45;101420.78;;;7.87;97.32
81033;BME280;70514;52.478;6.102;2023-12-20T04:01:13;101447.44;;;7.64;100.00
81033;BME280;70514;52.478;6.102;2023-12-20T04:03:41;101441.72;;;7.44;100.00
81033;BME280;70514;52.478;6.102;2023-12-20T04:06:09;101435.94;;;7.80;100.00
81033;BME280;70514;52.478;6.102;2023-12-20T04:08:37;101427.66;;;8.18;99.57
81033;BME280;70514;52.478;6.102;2023-12-20T04:11:05;101427.38;;;8.39;100.00
81033;BME280;70514;52.478;6.102;2023-12-20T04:13:33;101413.63;;;8.37;100.00
81033;BME280;70514;52.478;6.102;2023-12-20T04:16:01;101415.34;;;8.06;99.88
81033;BME280;70514;52.478;6.102;2023-12-20T04:18:29;101408.06;;;8.22;100.00
81033;BME280;70514;52.478;6.102;2023-12-20T04:20:57;101412.06;;;8.42;97.30
81033;BME280;70514;52.478;6.102;2023-12-20T04:23:24;101386.44;;;8.12;100.00
81033;BME280;70514;52.478;6.102;2023-12-20T04:25:53;101400.41;;;7.92;95.05
81033;BME280;70514;52.478;6.102;2023-12-20T04:28:20;101401.75;;;8.73;100.00
81033;BME280;70514;52.478;6.102;2023-12-20T04:30:48;101406.59;;;8.97;95.84
81033;BME280;70514;52.478;6.102;2023-12-20T04:33:16;101403.13;;;8.61;94.76
81033;BME280;70514;52.478;6.102;2023-12-20T04:35:44;101398.69;;;8.55;100.00
81033;BME280;70514;52.478;6.102;2023-12-20T04:38:13;101408.53;;;8.07;99.30
81033;BME280;70514;52.478;6.102;2023-12-20T04:40:41;101414.41;;;9.02;97.27
81033;BME280;70514;52.478;6.102;2023-12-20T04:43:09;101382.84;;;8.70;95.67
81033;BME280;70514;52.478;6.102;2023-12-20T04:45:37;101404.56;;;8.49;100.00
81033;BME280;70514;52.478;6.102;2023-12-20T04:48:05;101390.69;;;8.43;100.00
81033;BME280;70514;52.478;6.102;2023-12-20T04:50:34;101393.94;;;8.36;98.15
81033;BME280;70514;52.478;6.102;2023-12-20T04:53:02;101405.28;;;8.14;100.00
81033;BME280;70514;52.478;6.102;2023-12-20T04:55:29;101393.38;;;8.47;98.69
81033;BME280;70514;52.478;6.102;2023-12-20T04:57:57;101400.91;;;8.74;99.65
81033;BME280;70514;52.478;6.102;2023-12-20T05:00:25;101399.06;;;8.36;100.00
81033;BME280;70514;52.478;6.102;2023-12-20T05:02:53;101404.69;;;8.56;97.14
81033;BME280;70514;52.478;6.102;2023-12-20T05:05:21;101396.47;;;8.04;95.94
81033;BME280;70514;52.478;6.102;2023-12-20T05:07:49;101394.03;;;8.40;100.00
81033;BME280;70514;52.478;6.102;2023-12-20T05:10:17;101405.81;;;8.32;96.55
81033;BME280;70514;52.478;6.102;2023-12-20T05:12:45;101381.25;;;8.42;100.00
81033;BME280;70514;52.478;6.102;2023-12-20T05:15:13;101371.53;;;8.30;96.80
81033;BME280;70514;52.478;6.102;2023-12-20T05:17:41;101381.91;;;8.33;99.66
81033;BME280;70514;52.478;6.102;2023-12-20T05:20:09;101386.63;;;8.20;96.14
81033;BME280;70514;52.478;6.102;2023-12-20T05:22:37;101373.63;;;8.45;96.94
81033;BME280;70514;52.478;6.102;2023-12-20T05:25:05;101366.97;;;9.23;93.06
81033;BME280;70514;52.478;6.102;2023-12-20T05:27:33;101387.53;;;8.87;93.11
81033;BME280;70514;52.478;6.102;2023-12-20T05:30:00;101391.88;;;8.24;93.14
81033;BME280;70514;52.478;6.102;2023-12-20T05:32:29;101382.16;;;8.13;94.97
81033;BME280;70514;52.478;6.102;2023-12-20T05:34:57;101387.81;;;8.31;99.26
81033;BME280;70514;52.478;6.102;2023-12-20T05:37:25;101383.94;;;8.46;93.40
81033;BME280;70514;52.478;6.102;2023-12-20T05:39:53;101368.78;;;8.90;97.48
81033;BME280;70514;52.478;6.102;2023-12-20T05:42:21;101390.34;;;8.98;94.97
81033;BME280;70514;52.478;6.102;2023-12-20T05:44:48;101390.09;;;8.86;97.01
81033;BME280;70514;52.478;6.102;2023-12-20T05:47:19;101370.63;;;8.28;96.92
81033;BME280;70514;52.478;6.102;2023-12-20T05:49:47;101366.63;;;8.39;98.23
81033;BME280;70514;52.478;6.102;2023-12-20T05:52:15;101380.88;;;8.60;97.88
81033;BME280;70514;52.478;6.102;2023-12-20T05:54:46;101392.59;;;9.20;95.69
81033;BME280;70514;52.478;6.102;2023-12-20T05:57:14;101386.41;;;8.42;97.19
81033;BME280;70514;52.478;6.102;2023-12-20T05:59:42;101372.13;;;8.87;94.60
81033;BME280;70514;52.478;6.102;2023-12-20T06:02:10;101374.78;;;8.56;92.49
81033;BME280;70514;52.478;6.102;2023-12-20T06:04:42;101366.34;;;8.96;93.96
81033;BME280;70514;52.478;6.102;2023-12-20T06:07:14;101373.19;;;8.61;90.54
81033;BME280;70514;52.478;6.102;2023-12-20T06:09:42;101372.25;;;8.26;96.18
81033;BME280;70514;52.478;6.102;2023-12-20T06:12:10;101377.75;;;8.38;95.72
81033;BME280;70514;52.478;6.102;2023-12-20T06:14:38;101377.34;;;8.90;95.71
81033;BME280;70514;52.478;6.102;2023-12-20T06:17:06;101354.59;;;8.71;89.20
81033;BME280;70514;52.478;6.102;2023-12-20T06:19:34;101371.28;;;8.88;94.79
81033;BME280;70514;52.478;6.102;2023-12-20T06:22:02;101370.69;;;8.99;94.85
81033;BME280;70514;52.478;6.102;2023-12-20T06:24:30;101362.34;;;9.09;95.52
81033;BME280;70514;52.478;6.102;2023-12-20T06:26:58;101371.50;;;8.96;96.48
81033;BME280;70514;52.478;6.102;2023-12-20T06:29:27;101356.75;;;9.26;91.32
81033;BME280;70514;52.478;6.102;2023-12-20T06:31:58;101365.59;;;9.00;94.09
81033;BME280;70514;52.478;6.102;2023-12-20T06:34:25;101360.06;;;9.61;91.77
81033;BME280;70514;52.478;6.102;2023-12-20T06:36:53;101351.22;;;9.49;95.31
81033;BME280;70514;52.478;6.102;2023-12-20T06:39:21;101371.19;;;9.60;92.37
81033;BME280;70514;52.478;6.102;2023-12-20T06:41:49;101356.13;;;9.36;92.09
81033;BME280;70514;52.478;6.102;2023-12-20T06:44:17;101373.59;;;9.14;93.26
81033;BME280;70514;52.478;6.102;2023-12-20T06:46:45;101355.13;;;9.30;91.17
81033;BME280;70514;52.478;6.102;2023-12-20T06:49:13;101363.56;;;9.63;88.15
81033;BME280;70514;52.478;6.102;2023-12-20T06:51:41;101367.19;;;8.96;89.94
81033;BME280;70514;52.478;6.102;2023-12-20T06:54:09;101362.50;;;9.15;88.11
81033;BME280;70514;52.478;6.102;2023-12-20T06:56:37;101355.22;;;8.97;94.69
81033;BME280;70514;52.478;6.102;2023-12-20T06:59:05;101370.00;;;9.06;93.56
81033;BME280;70514;52.478;6.102;2023-12-20T07:01:34;101363.97;;;9.43;93.58
81033;BME280;70514;52.478;6.102;2023-12-20T07:04:02;101354.28;;;8.93;95.42
81033;BME280;70514;52.478;6.102;2023-12-20T07:06:30;101356.59;;;9.58;90.04
81033;BME280;70514;52.478;6.102;2023-12-20T07:08:58;101346.97;;;9.49;89.67
81033;BME280;70514;52.478;6.102;2023-12-20T07:11:26;101340.94;;;9.08;90.49
81033;BME280;70514;52.478;6.102;2023-12-20T07:13:54;101353.50;;;8.96;93.37
81033;BME280;70514;52.478;6.102;2023-12-20T07:16:22;101342.06;;;8.83;92.08
81033;BME280;70514;52.478;6.102;2023-12-20T07:18:50;101337.19;;;9.31;88.38
81033;BME280;70514;52.478;6.102;2023-12-20T07:21:20;101342.13;;;9.24;89.98
81033;BME280;70514;52.478;6.102;2023-12-20T07:23:48;101340.47;;;9.26;90.11
81033;BME280;70514;52.478;6.102;2023-12-20T07:26:15;101338.78;;;9.28;92.08
81033;BME280;70514;52.478;6.102;2023-12-20T07:28:43;101322.59;;;9.72;87.42
81033;BME280;70514;52.478;6.102;2023-12-20T07:31:11;101338.19;;;9.81;89.63
81033;BME280;70514;52.478;6.102;2023-12-20T07:33:39;101342.91;;;9.60;88.24
81033;BME280;70514;52.478;6.102;2023-12-20T07:36:07;101331.22;;;9.32;88.00
81033;BME280;70514;52.478;6.102;2023-12-20T07:38:35;101335.88;;;9.52;90.56
81033;BME280;70514;52.478;6.102;2023-12-20T07:41:04;101318.59;;;9.45;92.49
81033;BME280;70514;52.478;6.102;2023-12-20T07:43:32;101313.25;;;9.77;90.83
81033;BME280;70514;52.478;6.102;2023-12-20T07:46:10;101323.84;;;9.93;91.13
81033;BME280;70514;52.478;6.102;2023-12-20T07:48:38;101332.16;;;9.79;90.50
81033;BME280;70514;52.478;6.102;2023-12-20T07:51:10;101332.84;;;8.91;92.69
81033;BME280;70514;52.478;6.102;2023-12-20T07:53:38;101348.00;;;9.57;91.14
81033;BME280;70514;52.478;6.102;2023-12-20T07:56:19;101341.88;;;9.12;91.61
81033;BME280;70514;52.478;6.102;2023-12-20T07:58:47;101347.00;;;8.76;93.13
81033;BME280;70514;52.478;6.102;2023-12-20T08:01:20;101363.56;;;9.24;93.65
81033;BME280;70514;52.478;6.102;2023-12-20T08:03:49;101356.50;;;9.53;93.00
81033;BME280;70514;52.478;6.102;2023-12-20T08:06:19;101365.22;;;9.21;91.62
81033;BME280;70514;52.478;6.102;2023-12-20T08:08:47;101352.34;;;9.21;91.38
81033;BME280;70514;52.478;6.102;2023-12-20T08:11:28;101357.22;;;9.09;91.83
81033;BME280;70514;52.478;6.102;2023-12-20T08:13:57;101367.25;;;8.98;92.34
81033;BME280;70514;52.478;6.102;2023-12-20T08:16:26;101366.25;;;8.57;91.70
81033;BME280;70514;52.478;6.102;2023-12-20T08:18:54;101359.03;;;8.77;92.87
81033;BME280;70514;52.478;6.102;2023-12-20T08:21:22;101365.84;;;8.76;93.25
81033;BME280;70514;52.478;6.102;2023-12-20T08:23:50;101362.00;;;8.93;91.30
81033;BME280;70514;52.478;6.102;2023-12-20T08:26:19;101361.63;;;8.78;94.22
81033;BME280;70514;52.478;6.102;2023-12-20T08:28:53;101350.66;;;9.23;95.33
81033;BME280;70514;52.478;6.102;2023-12-20T08:31:23;101334.94;;;8.72;90.43
81033;BME280;70514;52.478;6.102;2023-12-20T08:33:51;101347.16;;;8.82;92.10
81033;BME280;70514;52.478;6.102;2023-12-20T08:36:21;101363.22;;;8.73;92.08
81033;BME280;70514;52.478;6.102;2023-12-20T08:38:52;101365.69;;;8.69;94.28
81033;BME280;70514;52.478;6.102;2023-12-20T08:41:20;101365.59;;;8.66;94.30
81033;BME280;70514;52.478;6.102;2023-12-20T08:43:48;101370.00;;;8.71;93.57
81033;BME280;70514;52.478;6.102;2023-12-20T08:46:16;101381.09;;;8.69;93.81
81033;BME280;70514;52.478;6.102;2023-12-20T08:48:44;101350.19;;;8.64;95.96
81033;BME280;70514;52.478;6.102;2023-12-20T08:51:13;101348.78;;;8.11;95.09
81033;BME280;70514;52.478;6.102;2023-12-20T08:53:40;101366.31;;;8.94;95.44
81033;BME280;70514;52.478;6.102;2023-12-20T08:56:11;101351.56;;;8.86;93.64
81033;BME280;70514;52.478;6.102;2023-12-20T08:58:39;101368.00;;;8.94;94.39
81033;BME280;70514;52.478;6.102;2023-12-20T09:01:08;101334.16;;;8.74;92.66
81033;BME280;70514;52.478;6.102;2023-12-20T09:03:36;101335.69;;;9.04;90.27
81033;BME280;70514;52.478;6.102;2023-12-20T09:06:04;101352.13;;;8.74;94.31
81033;BME280;70514;52.478;6.102;2023-12-20T09:08:33;101356.91;;;8.96;91.42
81033;BME280;70514;52.478;6.102;2023-12-20T09:11:01;101334.84;;;9.44;92.66
81033;BME280;70514;52.478;6.102;2023-12-20T09:13:30;101331.72;;;9.16;89.97
81033;BME280;70514;52.478;6.102;2023-12-20T09:15:59;101338.84;;;8.92;93.30
81033;BME280;70514;52.478;6.102;2023-12-20T09:18:27;101343.53;;;9.10;93.34
81033;BME280;70514;52.478;6.102;2023-12-20T09:20:56;101344.75;;;8.88;92.61
81033;BME280;70514;52.478;6.102;2023-12-20T09:23:24;101355.63;;;9.14;92.58
81033;BME280;70514;52.478;6.102;2023-12-20T09:25:52;101358.16;;;8.76;92.29
81033;BME280;70514;52.478;6.102;2023-12-20T09:28:24;101356.09;;;8.96;91.38
81033;BME280;70514;52.478;6.102;2023-12-20T09:30:52;101311.88;;;8.37;92.31
81033;BME280;70514;52.478;6.102;2023-12-20T09:33:20;101355.84;;;8.87;92.22
81033;BME280;70514;52.478;6.102;2023-12-20T09:35:48;101357.22;;;9.09;92.59
81033;BME280;70514;52.478;6.102;2023-12-20T09:38:16;101361.16;;;8.94;91.96
81033;BME280;70514;52.478;6.102;2023-12-20T09:40:45;101331.81;;;9.21;91.51
81033;BME280;70514;52.478;6.102;2023-12-20T09:43:18;101344.22;;;9.03;92.76
81033;BME280;70514;52.478;6.102;2023-12-20T09:45:47;101360.22;;;9.28;93.47
81033;BME280;70514;52.478;6.102;2023-12-20T09:48:17;101325.56;;;9.50;90.31
81033;BME280;70514;52.478;6.102;2023-12-20T09:50:46;101339.72;;;9.30;89.45
81033;BME280;70514;52.478;6.102;2023-12-20T09:53:21;101345.66;;;9.68;89.46
81033;BME280;70514;52.478;6.102;2023-12-20T09:55:52;101349.06;;;10.12;87.52
81033;BME280;70514;52.478;6.102;2023-12-20T09:58:20;101354.00;;;9.58;87.81
81033;BME280;70514;52.478;6.102;2023-12-20T10:00:48;101379.41;;;9.43;89.87
81033;BME280;70514;52.478;6.102;2023-12-20T10:03:22;101345.34;;;9.14;89.49
81033;BME280;70514;52.478;6.102;2023-12-20T10:05:56;101353.84;;;9.50;89.25
81033;BME280;70514;52.478;6.102;2023-12-20T10:08:25;101372.88;;;10.02;87.50
81033;BME280;70514;52.478;6.102;2023-12-20T10:10:53;101360.50;;;9.82;86.60
81033;BME280;70514;52.478;6.102;2023-12-20T10:13:23;101359.66;;;10.27;85.78
81033;BME280;70514;52.478;6.102;2023-12-20T10:15:51;101350.13;;;10.20;85.01
81033;BME280;70514;52.478;6.102;2023-12-20T10:18:20;101364.66;;;10.66;84.44
81033;BME280;70514;52.478;6.102;2023-12-20T10:20:48;101363.56;;;10.53;84.89
81033;BME280;70514;52.478;6.102;2023-12-20T10:23:17;101366.22;;;10.58;83.68
81033;BME280;70514;52.478;6.102;2023-12-20T10:25:55;101373.78;;;10.04;85.65
81033;BME280;70514;52.478;6.102;2023-12-20T10:28:23;101370.63;;;10.17;87.16
81033;BME280;70514;52.478;6.102;2023-12-20T10:30:55;101350.41;;;9.92;86.27
81033;BME280;70514;52.478;6.102;2023-12-20T10:33:27;101369.00;;;9.78;89.76
81033;BME280;70514;52.478;6.102;2023-12-20T10:36:02;101354.81;;;9.55;87.90
81033;BME280;70514;52.478;6.102;2023-12-20T10:38:30;101355.91;;;9.66;90.31
81033;BME280;70514;52.478;6.102;2023-12-20T10:40:59;101373.28;;;9.79;90.27
81033;BME280;70514;52.478;6.102;2023-12-20T10:43:30;101360.81;;;9.56;89.60
81033;BME280;70514;52.478;6.102;2023-12-20T10:45:58;101344.03;;;9.73;90.55
81033;BME280;70514;52.478;6.102;2023-12-20T10:48:27;101296.50;;;9.54;89.04
81033;BME280;70514;52.478;6.102;2023-12-20T10:50:58;101333.16;;;9.44;90.25
81033;BME280;70514;52.478;6.102;2023-12-20T10:53:27;101337.25;;;9.76;90.27
81033;BME280;70514;52.478;6.102;2023-12-20T10:55:55;101331.22;;;10.19;88.29
81033;BME280;70514;52.478;6.102;2023-12-20T10:58:26;101358.25;;;10.97;84.68
81033;BME280;70514;52.478;6.102;2023-12-20T11:01:00;101357.72;;;11.19;82.35
81033;BME280;70514;52.478;6.102;2023-12-20T11:03:34;101353.81;;;10.87;82.35
81033;BME280;70514;52.478;6.102;2023-12-20T11:06:10;101348.44;;;10.72;83.95
81033;BME280;70514;52.478;6.102;2023-12-20T11:12:32;101345.59;;;10.56;83.07
81033;BME280;70514;52.478;6.102;2023-12-20T11:14:45;101361.66;;;10.43;83.92
81033;BME280;70514;52.478;6.102;2023-12-20T11:17:14;101351.34;;;10.40;85.15
81033;BME280;70514;52.478;6.102;2023-12-20T11:22:25;101361.41;;;10.28;86.35
81033;BME280;70514;52.478;6.102;2023-12-20T11:24:58;101358.34;;;10.04;85.87
81033;BME280;70514;52.478;6.102;2023-12-20T11:27:26;101333.78;;;10.69;84.43
81033;BME280;70514;52.478;6.102;2023-12-20T11:29:56;101331.34;;;10.26;85.43
81033;BME280;70514;52.478;6.102;2023-12-20T11:35:00;101346.34;;;10.49;84.75
81033;BME280;70514;52.478;6.102;2023-12-20T11:37:30;101332.28;;;10.31;85.66
81033;BME280;70514;52.478;6.102;2023-12-20T11:40:11;101361.78;;;10.49;85.27
81033;BME280;70514;52.478;6.102;2023-12-20T11:42:43;101335.19;;;10.50;84.48
81033;BME280;70514;52.478;6.102;2023-12-20T11:45:17;101358.97;;;10.37;84.88
81033;BME280;70514;52.478;6.102;2023-12-20T11:47:48;101349.38;;;10.27;86.40
81033;BME280;70514;52.478;6.102;2023-12-20T11:50:20;101307.63;;;9.97;86.99
81033;BME280;70514;52.478;6.102;2023-12-20T11:52:49;101342.25;;;10.14;87.10
81033;BME280;70514;52.478;6.102;2023-12-20T11:55:17;101333.78;;;10.18;86.64
81033;BME280;70514;52.478;6.102;2023-12-20T11:57:45;101335.44;;;10.16;86.81
81033;BME280;70514;52.478;6.102;2023-12-20T12:00:14;101344.22;;;10.27;86.74
81033;BME280;70514;52.478;6.102;2023-12-20T12:02:43;101334.75;;;9.81;87.85
81033;BME280;70514;52.478;6.102;2023-12-20T12:05:14;101333.19;;;9.88;88.30
81033;BME280;70514;52.478;6.102;2023-12-20T12:07:42;101326.69;;;9.64;89.62
81033;BME280;70514;52.478;6.102;2023-12-20T12:10:10;101320.25;;;9.85;88.97
81033;BME280;70514;52.478;6.102;2023-12-20T12:12:38;101316.41;;;10.08;87.31
81033;BME280;70514;52.478;6.102;2023-12-20T12:15:06;101319.34;;;10.28;86.23
81033;BME280;70514;52.478;6.102;2023-12-20T12:17:34;101321.88;;;10.25;86.19
81033;BME280;70514;52.478;6.102;2023-12-20T12:20:05;101317.72;;;10.33;86.29
81033;BME280;70514;52.478;6.102;2023-12-20T12:22:33;101308.41;;;10.39;85.15
81033;BME280;70514;52.478;6.102;2023-12-20T12:25:11;101312.69;;;10.39;85.52
81033;BME280;70514;52.478;6.102;2023-12-20T12:27:40;101309.97;;;10.31;85.80
81033;BME280;70514;52.478;6.102;2023-12-20T12:30:10;101300.22;;;10.13;86.18
81033;BME280;70514;52.478;6.102;2023-12-20T12:32:40;101277.28;;;9.79;88.11
81033;BME280;70514;52.478;6.102;2023-12-20T12:35:09;101306.06;;;10.06;87.70
81033;BME280;70514;52.478;6.102;2023-12-20T12:37:38;101304.44;;;10.10;87.42
81033;BME280;70514;52.478;6.102;2023-12-20T12:40:11;101258.75;;;9.10;87.46
81033;BME280;70514;52.478;6.102;2023-12-20T12:42:40;101252.91;;;8.39;91.08
81033;BME280;70514;52.478;6.102;2023-12-20T12:45:09;101287.03;;;9.10;93.91
81033;BME280;70514;52.478;6.102;2023-12-20T12:47:37;101283.06;;;8.86;93.25
81033;BME280;70514;52.478;6.102;2023-12-20T12:50:05;101274.09;;;8.68;95.38
81033;BME280;70514;52.478;6.102;2023-12-20T12:52:34;101255.09;;;8.60;93.93
81033;BME280;70514;52.478;6.102;2023-12-20T12:55:05;101261.75;;;8.89;94.45
81033;BME280;70514;52.478;6.102;2023-12-20T12:57:33;101267.34;;;9.10;93.77
81033;BME280;70514;52.478;6.102;2023-12-20T13:00:01;101259.09;;;9.25;92.64
81033;BME280;70514;52.478;6.102;2023-12-20T13:02:31;101255.88;;;8.94;94.40
81033;BME280;70514;52.478;6.102;2023-12-20T13:04:59;101245.78;;;9.04;94.64
81033;BME280;70514;52.478;6.102;2023-12-20T13:07:28;101210.13;;;9.19;93.70
81033;BME280;70514;52.478;6.102;2023-12-20T13:09:56;101239.97;;;9.56;92.93
81033;BME280;70514;52.478;6.102;2023-12-20T13:12:24;101218.94;;;8.89;93.25
81033;BME280;70514;52.478;6.102;2023-12-20T13:14:52;101238.94;;;9.04;94.37